Time;durP1;ratioP1;P1;durP2;ratioP2;P2;SDS_P1;SDS_P2;PMS_P1;PMS_P2;Temp;Humidity;BMP_temperature;BMP_pressure;BME280_temperature;BME280_humidity;BME280_pressure;Samples;Min_cycle;Max_cycle;Signal;HPM_P1;HPM_P2
2023/08/09 00:00:26;;;;;;;5.65;3.75;;;11.90;99.90;;;;;;5023061;28;20054;-84
2023/08/09 00:02:53;;;;;;;6.95;4.45;;;11.80;99.90;;;;;;5021600;28;20034;-84
2023/08/09 00:05:22;;;;;;;5.38;4.38;;;11.70;99.90;;;;;;5022165;28;20100;-84
2023/08/09 00:07:49;;;;;;;5.53;4.25;;;11.80;99.90;;;;;;5020855;28;20056;-81
2023/08/09 00:10:17;;;;;;;12.38;6.50;;;11.80;99.90;;;;;;5020156;28;20038;-83
2023/08/09 00:12:45;;;;;;;7.10;4.30;;;11.90;99.90;;;;;;5022190;28;20491;-82
2023/08/09 00:15:12;;;;;;;7.85;4.70;;;12.00;99.90;;;;;;5019936;28;20141;-84
2023/08/09 00:17:40;;;;;;;6.50;3.40;;;12.00;99.90;;;;;;5022233;28;20413;-84
2023/08/09 00:20:08;;;;;;;8.35;3.40;;;12.10;99.90;;;;;;5018999;28;20093;-81
2023/08/09 00:22:37;;;;;;;6.75;3.17;;;12.10;99.90;;;;;;5019514;28;20049;-83
2023/08/09 00:25:05;;;;;;;6.70;3.60;;;11.90;99.90;;;;;;5019539;28;20052;-82
2023/08/09 00:27:32;;;;;;;6.50;3.40;;;11.90;99.90;;;;;;5018748;28;20045;-84
2023/08/09 00:30:00;;;;;;;6.85;3.20;;;11.80;99.90;;;;;;5002628;28;20081;-82
2023/08/09 00:32:27;;;;;;;5.15;3.40;;;11.70;99.90;;;;;;5004910;28;20386;-83
2023/08/09 00:34:55;;;;;;;7.07;3.67;;;11.70;99.90;;;;;;5027929;28;20092;-84
2023/08/09 00:37:22;;;;;;;6.28;3.40;;;11.60;99.90;;;;;;5040943;28;20034;-83
2023/08/09 00:39:51;;;;;;;7.75;3.35;;;11.70;99.90;;;;;;5025572;28;20041;-83
2023/08/09 00:42:19;;;;;;;5.72;3.40;;;11.70;99.90;;;;;;5045207;28;20085;-84
2023/08/09 00:44:46;;;;;;;9.60;3.50;;;11.80;99.90;;;;;;5009992;28;20114;-83
2023/08/09 00:47:14;;;;;;;4.72;3.20;;;11.70;99.90;;;;;;5021159;28;20052;-83
2023/08/09 00:49:51;;;;;;;7.57;4.03;;;11.70;99.90;;;;;;5030624;28;20037;-83
2023/08/09 00:52:20;;;;;;;6.15;3.50;;;11.80;99.90;;;;;;5053265;28;20057;-82
2023/08/09 00:54:50;;;;;;;5.85;3.50;;;11.70;99.90;;;;;;5022051;28;20058;-83
2023/08/09 00:57:18;;;;;;;4.45;3.80;;;11.80;99.90;;;;;;5001276;28;20111;-84
2023/08/09 00:59:45;;;;;;;8.40;4.43;;;11.80;99.90;;;;;;5001708;28;20045;-83
2023/08/09 01:02:12;;;;;;;6.70;3.97;;;11.70;99.90;;;;;;5003816;28;20457;-81
2023/08/09 01:04:40;;;;;;;7.70;5.00;;;11.70;99.90;;;;;;5021176;28;20048;-81
2023/08/09 01:07:14;;;;;;;6.97;4.13;;;11.70;99.90;;;;;;5016716;28;20046;-82
2023/08/09 01:09:49;;;;;;;9.23;4.18;;;11.60;99.90;;;;;;5021478;28;20665;-81
2023/08/09 01:12:23;;;;;;;8.95;4.20;;;11.60;99.90;;;;;;5020745;28;20132;-82
2023/08/09 01:14:53;;;;;;;6.28;3.63;;;11.60;99.90;;;;;;5020711;28;20077;-83
2023/08/09 01:17:28;;;;;;;8.13;4.28;;;11.60;99.90;;;;;;5037553;28;20042;-82
2023/08/09 01:19:58;;;;;;;5.53;3.75;;;11.50;99.90;;;;;;5031776;28;20406;-84
2023/08/09 01:22:29;;;;;;;5.38;2.92;;;11.50;99.90;;;;;;5017231;28;20050;-83
2023/08/09 01:25:03;;;;;;;5.05;2.85;;;11.50;99.90;;;;;;5021815;28;20044;-83
2023/08/09 01:27:31;;;;;;;6.55;2.80;;;11.50;99.90;;;;;;5022265;28;20421;-83
2023/08/09 01:29:58;;;;;;;3.85;3.03;;;11.40;99.90;;;;;;5019217;28;20046;-84
2023/08/09 01:32:26;;;;;;;4.47;3.20;;;11.40;99.90;;;;;;5016618;28;20056;-80
2023/08/09 01:34:54;;;;;;;5.88;3.55;;;11.40;99.90;;;;;;5014266;28;20541;-84
2023/08/09 01:37:27;;;;;;;6.38;4.00;;;11.40;99.90;;;;;;5013953;28;20046;-82
2023/08/09 01:39:58;;;;;;;6.22;3.92;;;11.40;99.90;;;;;;5031027;28;20050;-82
2023/08/09 01:42:26;;;;;;;8.80;4.20;;;11.40;99.90;;;;;;5019750;28;20052;-83
2023/08/09 01:44:55;;;;;;;6.03;3.97;;;11.40;99.90;;;;;;5006782;28;20072;-81
2023/08/09 01:47:23;;;;;;;4.97;3.67;;;11.30;99.90;;;;;;5030052;28;20541;-81
2023/08/09 01:49:51;;;;;;;6.45;3.85;;;11.20;99.90;;;;;;5021882;28;20038;-83
2023/08/09 01:52:19;;;;;;;4.80;3.40;;;11.20;99.90;;;;;;5026333;28;20038;-81
2023/08/09 01:54:46;;;;;;;6.20;3.40;;;11.40;99.90;;;;;;5005409;28;20049;-81
2023/08/09 01:57:15;;;;;;;4.72;2.95;;;11.40;99.90;;;;;;5003400;28;20049;-83
2023/08/09 01:59:44;;;;;;;6.55;3.60;;;11.30;99.90;;;;;;5007970;28;20053;-84
2023/08/09 02:02:11;;;;;;;5.07;2.60;;;11.30;99.90;;;;;;5012988;28;20041;-84
2023/08/09 02:04:38;;;;;;;5.15;3.33;;;11.30;99.90;;;;;;5006413;28;20069;-83
2023/08/09 02:07:06;;;;;;;6.40;3.08;;;11.20;99.90;;;;;;5022282;28;20501;-82
2023/08/09 02:09:34;;;;;;;5.88;3.30;;;11.10;99.90;;;;;;5022990;28;20053;-84
2023/08/09 02:12:01;;;;;;;6.47;3.25;;;11.10;99.90;;;;;;5024078;28;20666;-83
2023/08/09 02:14:30;;;;;;;6.13;3.22;;;11.10;99.90;;;;;;5025032;28;20038;-83
2023/08/09 02:16:57;;;;;;;6.45;2.90;;;11.20;99.90;;;;;;5003245;28;20441;-82
2023/08/09 02:19:26;;;;;;;4.82;2.90;;;11.10;99.90;;;;;;5022651;28;20046;-83
2023/08/09 02:21:53;;;;;;;5.65;2.75;;;11.10;99.90;;;;;;5021624;28;20121;-84
2023/08/09 02:24:23;;;;;;;5.57;2.63;;;11.10;99.90;;;;;;5021720;28;20576;-83
2023/08/09 02:26:50;;;;;;;4.45;2.60;;;11.00;99.90;;;;;;5003453;28;20047;-83
2023/08/09 02:29:17;;;;;;;5.45;2.70;;;10.90;99.90;;;;;;5022499;28;20056;-83
2023/08/09 02:31:46;;;;;;;5.88;2.67;;;10.90;99.90;;;;;;5002198;28;20046;-83
2023/08/09 02:34:13;;;;;;;5.93;2.90;;;11.00;99.90;;;;;;5020898;28;20505;-83
2023/08/09 02:36:41;;;;;;;5.18;2.97;;;10.90;99.90;;;;;;5021532;28;20042;-84
2023/08/09 02:39:09;;;;;;;6.82;3.00;;;10.90;99.90;;;;;;5004921;28;20532;-83
2023/08/09 02:41:37;;;;;;;4.80;3.33;;;10.90;99.90;;;;;;5021295;28;20041;-82
2023/08/09 02:44:05;;;;;;;5.13;3.25;;;11.00;99.90;;;;;;5028205;28;20046;-83
2023/08/09 02:46:33;;;;;;;4.00;3.00;;;10.90;99.90;;;;;;5020384;28;20057;-83
2023/08/09 02:49:02;;;;;;;5.45;2.95;;;11.10;99.90;;;;;;5019713;28;20109;-84
2023/08/09 02:51:30;;;;;;;3.90;2.83;;;10.90;99.90;;;;;;5003407;28;20096;-83
2023/08/09 02:54:02;;;;;;;4.93;2.72;;;10.80;99.90;;;;;;5003821;28;20634;-83
2023/08/09 02:56:30;;;;;;;4.68;3.10;;;10.60;99.90;;;;;;5020709;28;20084;-82
2023/08/09 02:58:57;;;;;;;8.75;3.10;;;10.50;99.90;;;;;;5021279;28;20284;-83
2023/08/09 03:01:25;;;;;;;5.88;3.00;;;10.40;99.90;;;;;;5001241;28;20748;-83
2023/08/09 03:03:55;;;;;;;4.63;2.80;;;10.40;99.90;;;;;;5004810;28;20050;-83
2023/08/09 03:06:25;;;;;;;3.63;2.63;;;10.40;99.90;;;;;;5022313;28;20137;-81
2023/08/09 03:08:53;;;;;;;5.65;2.70;;;10.40;99.90;;;;;;5003553;28;20057;-84
2023/08/09 03:11:22;;;;;;;3.55;2.70;;;10.40;99.90;;;;;;5002147;28;20045;-83
2023/08/09 03:13:50;;;;;;;7.22;3.20;;;10.50;99.90;;;;;;5002069;28;20146;-84
2023/08/09 03:16:18;;;;;;;5.68;2.92;;;10.50;99.90;;;;;;5002913;28;20079;-84
2023/08/09 03:18:46;;;;;;;4.70;3.13;;;10.60;99.90;;;;;;5002440;28;20042;-83
2023/08/09 03:21:14;;;;;;;4.45;2.83;;;10.60;99.90;;;;;;5010554;28;20464;-82
2023/08/09 03:23:44;;;;;;;5.50;3.50;;;10.70;99.90;;;;;;5002980;28;20517;-84
2023/08/09 03:26:11;;;;;;;7.53;3.08;;;10.70;99.90;;;;;;5000836;28;20511;-82
2023/08/09 03:28:42;;;;;;;4.68;3.13;;;10.60;99.90;;;;;;5003804;28;20498;-83
2023/08/09 03:31:11;;;;;;;4.78;3.72;;;10.60;99.90;;;;;;5003217;28;20053;-84
2023/08/09 03:33:40;;;;;;;6.38;3.97;;;10.60;99.90;;;;;;5001633;28;20053;-84
2023/08/09 03:36:09;;;;;;;6.45;3.95;;;10.60;99.90;;;;;;5001759;28;20654;-83
2023/08/09 03:38:36;;;;;;;5.82;3.75;;;10.60;99.90;;;;;;5003986;28;20049;-83
2023/08/09 03:41:05;;;;;;;5.38;3.70;;;10.60;99.90;;;;;;5002009;28;20048;-82
2023/08/09 03:43:32;;;;;;;8.45;4.00;;;10.70;99.90;;;;;;5003159;28;20048;-84
2023/08/09 03:46:00;;;;;;;5.82;3.50;;;10.60;99.90;;;;;;5019950;28;20529;-84
2023/08/09 03:48:28;;;;;;;4.93;3.35;;;10.60;99.90;;;;;;5010344;28;20041;-82
2023/08/09 03:50:56;;;;;;;6.97;3.20;;;10.60;99.90;;;;;;5003293;28;20146;-82
2023/08/09 03:53:23;;;;;;;9.55;3.40;;;10.60;99.90;;;;;;5000451;28;20404;-85
2023/08/09 03:55:51;;;;;;;5.78;3.20;;;10.60;99.90;;;;;;5010455;28;20052;-83
2023/08/09 03:58:19;;;;;;;3.80;3.05;;;10.60;99.90;;;;;;5002251;28;20645;-85
2023/08/09 04:00:47;;;;;;;8.50;3.13;;;10.70;99.90;;;;;;5020930;28;20050;-83
2023/08/09 04:03:14;;;;;;;6.07;2.95;;;10.60;99.90;;;;;;5003555;28;20067;-83
2023/08/09 04:05:42;;;;;;;5.72;3.15;;;10.70;99.90;;;;;;5000796;28;20054;-82
2023/08/09 04:08:10;;;;;;;6.53;2.92;;;10.80;99.90;;;;;;5025513;28;20037;-84
2023/08/09 04:10:38;;;;;;;7.00;3.58;;;10.90;99.90;;;;;;5026513;28;20490;-83
2023/08/09 04:13:05;;;;;;;8.45;4.07;;;11.00;99.90;;;;;;5014361;28;20049;-82
2023/08/09 04:15:35;;;;;;;8.55;3.63;;;11.40;99.90;;;;;;5014390;28;20054;-83
2023/08/09 04:18:02;;;;;;;6.93;3.25;;;11.80;99.90;;;;;;5006466;28;20061;-83
2023/08/09 04:20:31;;;;;;;5.30;3.00;;;12.10;99.90;;;;;;5018760;28;20026;-84
2023/08/09 04:23:00;;;;;;;3.40;2.33;;;12.60;99.90;;;;;;5028065;28;20101;-83
2023/08/09 04:25:27;;;;;;;7.28;3.00;;;13.30;99.90;;;;;;5015172;28;20050;-83
2023/08/09 04:27:55;;;;;;;4.47;2.58;;;13.80;99.90;;;;;;5016073;28;20064;-81
2023/08/09 04:30:23;;;;;;;6.32;2.50;;;14.40;99.90;;;;;;5027216;28;20038;-83
2023/08/09 04:32:53;;;;;;;5.28;2.20;;;14.80;99.90;;;;;;5025427;28;20102;-82
2023/08/09 04:35:20;;;;;;;4.82;2.20;;;15.30;99.90;;;;;;5008530;28;20053;-81
2023/08/09 04:37:48;;;;;;;5.63;2.22;;;15.60;99.90;;;;;;5002323;28;20042;-81
2023/08/09 04:40:15;;;;;;;6.22;2.35;;;16.00;99.90;;;;;;5002311;28;20046;-81
2023/08/09 04:42:44;;;;;;;5.78;2.50;;;16.30;99.90;;;;;;5001710;28;20069;-81
2023/08/09 04:45:12;;;;;;;6.05;2.10;;;16.10;99.90;;;;;;5004408;28;20035;-80
2023/08/09 04:47:40;;;;;;;4.95;2.25;;;15.70;99.90;;;;;;5000656;28;20038;-83
2023/08/09 04:50:09;;;;;;;6.55;2.33;;;15.50;99.90;;;;;;5010440;28;20030;-82
2023/08/09 04:52:38;;;;;;;5.25;1.80;;;15.20;99.90;;;;;;5020481;28;20054;-83
2023/08/09 04:55:06;;;;;;;7.03;2.15;;;15.00;99.90;;;;;;5018903;28;20053;-84
2023/08/09 04:57:33;;;;;;;4.47;1.88;;;14.90;99.90;;;;;;5000688;28;20494;-82
2023/08/09 05:00:00;;;;;;;5.68;2.67;;;14.90;99.90;;;;;;5001335;28;20088;-83
2023/08/09 05:02:27;;;;;;;2.85;1.65;;;14.90;99.90;;;;;;5001889;28;20065;-83
2023/08/09 05:04:55;;;;;;;7.07;2.65;;;14.80;99.90;;;;;;5005018;28;20041;-83
2023/08/09 05:07:23;;;;;;;4.88;3.00;;;14.70;99.90;;;;;;5020437;28;20069;-84
2023/08/09 05:09:51;;;;;;;8.52;4.63;;;14.70;99.90;;;;;;5018968;28;20098;-80
2023/08/09 05:12:18;;;;;;;4.75;2.53;;;14.70;99.90;;;;;;5023038;28;20452;-84
2023/08/09 05:14:45;;;;;;;15.48;4.68;;;14.80;99.90;;;;;;5003426;28;20053;-83
2023/08/09 05:17:12;;;;;;;4.20;2.55;;;15.00;99.90;;;;;;5021297;28;20050;-83
2023/08/09 05:19:40;;;;;;;4.85;2.88;;;15.20;99.90;;;;;;5020940;28;20041;-85
2023/08/09 05:22:07;;;;;;;6.95;2.42;;;15.30;99.90;;;;;;5008429;28;20060;-83
2023/08/09 05:24:36;;;;;;;7.88;4.28;;;15.40;99.90;;;;;;5044967;28;20034;-82
2023/08/09 05:27:04;;;;;;;5.43;2.67;;;15.60;99.90;;;;;;5034891;28;20037;-82
2023/08/09 05:29:32;;;;;;;9.13;3.55;;;16.10;99.90;;;;;;5024648;28;20073;-81
2023/08/09 05:32:00;;;;;;;6.93;3.72;;;16.90;99.90;;;;;;5015377;28;20077;-83
2023/08/09 05:34:27;;;;;;;6.38;3.97;;;17.50;99.90;;;;;;5042604;28;20053;-80
2023/08/09 05:36:54;;;;;;;4.78;2.78;;;18.10;99.90;;;;;;5031382;28;20071;-80
2023/08/09 05:39:22;;;;;;;5.72;2.65;;;18.60;99.90;;;;;;5023795;28;20119;-81
2023/08/09 05:41:51;;;;;;;6.95;5.15;;;19.00;99.90;;;;;;5029142;28;20624;-84
2023/08/09 05:44:18;;;;;;;7.40;3.00;;;19.20;99.90;;;;;;5028942;28;20057;-80
2023/08/09 05:46:45;;;;;;;3.85;2.20;;;19.20;99.90;;;;;;5022483;28;20041;-81
2023/08/09 05:49:13;;;;;;;5.22;2.88;;;19.30;99.90;;;;;;5005250;28;20049;-80
2023/08/09 05:51:40;;;;;;;7.55;3.08;;;19.30;99.90;;;;;;5023319;28;20054;-80
2023/08/09 05:54:08;;;;;;;5.40;2.88;;;19.10;99.90;;;;;;5023434;28;20041;-82
2023/08/09 05:56:35;;;;;;;6.75;2.63;;;19.30;99.90;;;;;;5023053;28;20493;-82
2023/08/09 05:59:04;;;;;;;8.18;2.97;;;19.40;99.90;;;;;;5023537;28;20037;-79
2023/08/09 06:01:31;;;;;;;6.47;3.75;;;19.20;99.90;;;;;;5019570;28;20061;-81
2023/08/09 06:03:59;;;;;;;5.00;2.53;;;19.20;99.90;;;;;;5021216;28;20047;-80
2023/08/09 06:06:26;;;;;;;5.15;2.10;;;19.20;99.90;;;;;;5020128;28;20111;-79
2023/08/09 06:08:53;;;;;;;7.10;3.45;;;18.90;99.90;;;;;;5005411;28;20050;-79
2023/08/09 06:11:20;;;;;;;3.92;1.70;;;18.80;99.90;;;;;;5024351;28;20213;-80
2023/08/09 06:13:48;;;;;;;7.38;4.22;;;19.00;99.90;;;;;;5023136;28;20057;-78
2023/08/09 06:16:16;;;;;;;6.45;3.13;;;19.00;99.90;;;;;;5020002;28;20104;-80
2023/08/09 06:18:46;;;;;;;5.82;2.50;;;19.00;99.90;;;;;;5020398;28;20111;-78
2023/08/09 06:21:13;;;;;;;32.63;8.68;;;19.10;99.90;;;;;;5023875;28;20045;-78
2023/08/09 06:23:40;;;;;;;8.15;3.33;;;18.90;99.90;;;;;;5023023;28;20053;-80
2023/08/09 06:26:07;;;;;;;9.80;4.20;;;19.20;99.90;;;;;;5019540;28;20096;-79
2023/08/09 06:28:35;;;;;;;6.15;3.92;;;19.20;99.90;;;;;;5023177;28;20099;-79
2023/08/09 06:31:02;;;;;;;7.78;3.97;;;19.50;99.90;;;;;;4980111;28;20069;-83
2023/08/09 06:33:36;;;;;;;11.55;4.82;;;19.70;99.90;;;;;;5021534;28;20056;-82
2023/08/09 06:36:04;;;;;;;11.70;4.82;;;20.10;99.90;;;;;;5021508;28;20042;-81
2023/08/09 06:38:31;;;;;;;12.70;4.68;;;20.30;99.90;;;;;;5024847;28;20157;-82
2023/08/09 06:40:59;;;;;;;10.82;6.25;;;20.40;99.90;;;;;;5020959;28;20068;-83
2023/08/09 06:43:26;;;;;;;14.93;7.05;;;20.70;99.90;;;;;;5020376;28;20045;-83
2023/08/09 06:45:54;;;;;;;11.55;6.78;;;20.80;99.90;;;;;;5002869;28;20126;-85
2023/08/09 06:48:21;;;;;;;10.80;6.38;;;21.00;99.90;;;;;;5004761;28;20489;-83
2023/08/09 06:50:50;;;;;;;11.32;6.63;;;21.20;99.90;;;;;;5004013;28;20115;-84
2023/08/09 06:53:18;;;;;;;8.95;5.53;;;21.30;99.90;;;;;;5022701;28;20608;-82
2023/08/09 06:55:45;;;;;;;11.82;5.50;;;21.10;99.90;;;;;;5021657;28;20502;-83
2023/08/09 06:58:12;;;;;;;12.65;6.10;;;20.80;99.90;;;;;;5005367;28;20057;-82
2023/08/09 07:00:39;;;;;;;11.95;5.65;;;20.70;99.90;;;;;;5022899;28;20565;-82
2023/08/09 07:03:07;;;;;;;10.73;6.03;;;20.80;99.90;;;;;;5003856;28;20109;-83
2023/08/09 07:05:35;;;;;;;11.35;5.82;;;20.90;99.90;;;;;;5022620;28;20076;-81
2023/08/09 07:08:04;;;;;;;9.50;5.00;;;21.20;99.90;;;;;;5005628;28;20452;-82
2023/08/09 07:10:32;;;;;;;10.35;4.47;;;21.50;99.90;;;;;;5023820;28;20053;-83
2023/08/09 07:12:59;;;;;;;6.35;3.83;;;21.70;99.90;;;;;;5021542;28;20056;-81
2023/08/09 07:15:27;;;;;;;8.07;3.08;;;21.70;99.90;;;;;;5020913;28;20049;-81
2023/08/09 07:17:54;;;;;;;6.20;3.00;;;21.60;99.90;;;;;;5021427;28;20041;-81
2023/08/09 07:20:22;;;;;;;5.20;3.10;;;21.50;99.90;;;;;;5022595;28;20049;-83
2023/08/09 07:22:49;;;;;;;7.45;3.58;;;21.50;99.90;;;;;;5003842;28;20052;-83
2023/08/09 07:25:18;;;;;;;7.28;3.95;;;21.60;99.90;;;;;;5021961;28;20073;-82
2023/08/09 07:27:47;;;;;;;8.23;4.82;;;21.80;99.90;;;;;;5004357;28;20512;-83
2023/08/09 07:30:15;;;;;;;5.75;3.97;;;21.90;99.90;;;;;;5015229;28;20050;-83
2023/08/09 07:32:43;;;;;;;5.88;3.28;;;22.10;99.90;;;;;;5040176;28;20022;-85
2023/08/09 07:35:11;;;;;;;6.35;2.85;;;22.20;99.90;;;;;;5045384;28;20057;-83
2023/08/09 07:37:40;;;;;;;6.15;2.78;;;22.10;99.90;;;;;;5038268;28;20049;-84
2023/08/09 07:40:09;;;;;;;5.07;2.70;;;22.10;99.90;;;;;;5040196;28;20060;-86
2023/08/09 07:42:37;;;;;;;4.30;3.08;;;22.20;99.90;;;;;;5036510;28;20072;-83
2023/08/09 07:45:06;;;;;;;7.50;3.00;;;22.30;99.90;;;;;;5028500;28;20033;-83
2023/08/09 07:47:34;;;;;;;3.90;2.33;;;22.50;99.90;;;;;;5023754;28;20033;-83
2023/08/09 07:50:05;;;;;;;6.80;2.78;;;22.70;99.90;;;;;;5026361;28;20045;-82
2023/08/09 07:52:35;;;;;;;3.50;1.80;;;22.70;99.90;;;;;;5031355;28;20099;-83
2023/08/09 07:55:04;;;;;;;5.32;3.75;;;22.90;99.90;;;;;;5030624;28;20049;-82
2023/08/09 07:57:33;;;;;;;3.65;2.50;;;23.10;99.90;;;;;;5026999;28;20056;-84
2023/08/09 08:00:05;;;;;;;4.50;2.50;;;23.30;99.90;;;;;;5009299;28;20037;-84
2023/08/09 08:02:40;;;;;;;5.22;2.45;;;23.30;99.90;;;;;;5023398;28;20072;-82
2023/08/09 08:05:08;;;;;;;5.70;3.88;;;23.30;99.90;;;;;;5018721;28;20037;-84
2023/08/09 08:07:35;;;;;;;4.25;3.10;;;23.30;99.90;;;;;;5021748;28;20138;-85
2023/08/09 08:10:03;;;;;;;3.60;2.60;;;23.60;99.90;;;;;;5019356;28;20050;-85
2023/08/09 08:12:30;;;;;;;4.63;2.22;;;23.50;99.90;;;;;;5020282;28;20053;-83
2023/08/09 08:15:00;;;;;;;4.70;2.80;;;23.60;99.90;;;;;;5022526;28;20120;-79
2023/08/09 08:17:29;;;;;;;6.43;3.70;;;23.50;99.90;;;;;;5003805;28;20094;-79
2023/08/09 08:19:56;;;;;;;8.63;6.00;;;23.60;99.90;;;;;;5022487;28;20058;-84
2023/08/09 08:22:24;;;;;;;4.00;3.25;;;23.60;99.90;;;;;;5020343;28;20412;-78
2023/08/09 08:24:51;;;;;;;3.60;2.20;;;23.70;99.90;;;;;;5021582;28;20037;-81
2023/08/09 08:27:20;;;;;;;4.97;2.47;;;23.90;99.90;;;;;;5029211;28;20058;-80
2023/08/09 08:29:47;;;;;;;3.42;2.00;;;23.90;99.90;;;;;;5030916;28;20037;-84
2023/08/09 08:32:15;;;;;;;4.53;2.15;;;23.90;99.90;;;;;;5030336;28;20052;-82
2023/08/09 08:34:46;;;;;;;4.53;2.50;;;23.60;99.90;;;;;;5023883;28;20052;-84
2023/08/09 08:37:13;;;;;;;4.80;2.22;;;23.60;99.90;;;;;;5002109;28;20064;-82
2023/08/09 08:39:44;;;;;;;4.78;2.30;;;23.50;99.90;;;;;;4998385;28;20128;-82
2023/08/09 08:42:12;;;;;;;4.43;2.10;;;23.30;99.90;;;;;;5032198;28;20113;-86
2023/08/09 08:44:40;;;;;;;4.38;2.35;;;23.10;99.90;;;;;;5015630;28;20053;-80
2023/08/09 08:47:08;;;;;;;4.90;3.30;;;22.90;99.90;;;;;;5010728;28;20045;-84
2023/08/09 08:49:36;;;;;;;4.13;2.20;;;22.90;99.90;;;;;;5021225;28;20063;-85
2023/08/09 08:52:12;;;;;;;6.00;2.50;;;23.20;99.90;;;;;;5025590;28;20048;-85
2023/08/09 08:54:41;;;;;;;3.50;2.05;;;23.30;99.90;;;;;;5028617;28;20128;-86
2023/08/09 08:57:09;;;;;;;5.50;2.58;;;23.50;99.90;;;;;;5029001;28;20041;-86
2023/08/09 08:59:37;;;;;;;6.45;2.95;;;23.80;99.90;;;;;;5029114;28;20037;-86
2023/08/09 09:02:05;;;;;;;4.18;2.40;;;23.90;99.90;;;;;;5039253;28;20050;-84
2023/08/09 09:04:32;;;;;;;4.88;2.50;;;24.10;99.90;;;;;;5012024;28;20042;-81
2023/08/09 09:07:00;;;;;;;3.85;2.25;;;24.30;99.90;;;;;;5045043;28;20183;-86
2023/08/09 09:09:28;;;;;;;3.83;1.60;;;24.50;99.90;;;;;;5039726;28;20092;-85
2023/08/09 09:11:56;;;;;;;3.15;1.70;;;24.20;99.90;;;;;;5036720;28;20034;-84
2023/08/09 09:14:24;;;;;;;4.13;2.58;;;24.20;99.90;;;;;;5009915;28;20046;-81
2023/08/09 09:16:52;;;;;;;3.30;2.10;;;24.30;99.90;;;;;;5026220;28;20042;-85
2023/08/09 09:19:19;;;;;;;3.55;2.20;;;24.60;99.90;;;;;;5009164;28;20088;-81
2023/08/09 09:21:47;;;;;;;5.30;1.88;;;24.90;99.90;;;;;;5027066;28;20080;-83
2023/08/09 09:24:16;;;;;;;4.57;2.03;;;24.90;99.90;;;;;;5021463;28;20045;-88
2023/08/09 09:26:54;;;;;;;3.67;2.15;;;24.80;99.90;;;;;;5026484;28;20076;-86
2023/08/09 09:29:27;;;;;;;3.85;3.03;;;24.70;99.90;;;;;;5011491;28;20053;-78
2023/08/09 09:31:59;;;;;;;5.03;2.60;;;24.30;99.90;;;;;;5022987;28;20042;-78
2023/08/09 09:34:29;;;;;;;4.40;2.67;;;24.20;99.90;;;;;;5005950;28;20050;-77
2023/08/09 09:36:57;;;;;;;3.92;2.55;;;24.20;99.90;;;;;;5021119;28;20050;-77
2023/08/09 09:39:29;;;;;;;2.95;1.75;;;24.30;99.90;;;;;;5020262;28;20053;-81
2023/08/09 09:41:58;;;;;;;6.88;3.38;;;24.40;99.90;;;;;;5022937;28;20088;-78
2023/08/09 09:44:25;;;;;;;9.57;7.80;;;24.50;99.90;;;;;;5002665;28;20080;-79
2023/08/09 09:46:54;;;;;;;4.20;1.88;;;24.60;99.90;;;;;;5024883;28;20033;-75
2023/08/09 09:49:22;;;;;;;5.40;2.70;;;24.10;99.90;;;;;;5030097;28;20049;-80
2023/08/09 09:51:50;;;;;;;4.80;3.20;;;24.40;99.90;;;;;;5037202;28;20061;-78
2023/08/09 09:54:17;;;;;;;6.68;3.92;;;24.40;99.90;;;;;;5029040;28;20161;-80
2023/08/09 09:56:45;;;;;;;11.05;7.20;;;24.40;99.90;;;;;;5010612;28;20049;-81
2023/08/09 09:59:13;;;;;;;5.88;3.15;;;24.40;99.90;;;;;;5007960;28;20081;-83
2023/08/09 10:01:44;;;;;;;4.53;2.47;;;24.30;99.90;;;;;;5022862;28;20681;-78
2023/08/09 10:04:12;;;;;;;6.15;5.25;;;24.40;99.90;;;;;;5023171;28;20045;-79
2023/08/09 10:06:42;;;;;;;4.40;2.60;;;24.90;99.90;;;;;;5002163;28;20066;-79
2023/08/09 10:09:12;;;;;;;4.35;2.20;;;25.20;99.90;;;;;;5009361;28;20062;-77
2023/08/09 10:11:44;;;;;;;3.25;1.50;;;25.40;99.90;;;;;;5001735;28;20683;-77
2023/08/09 10:14:16;;;;;;;4.60;3.15;;;24.90;99.90;;;;;;5001883;28;20690;-78
2023/08/09 10:16:45;;;;;;;2.67;1.65;;;25.10;99.90;;;;;;5002972;28;20034;-78
2023/08/09 10:19:16;;;;;;;3.65;2.00;;;25.30;99.90;;;;;;5002746;28;20189;-78
2023/08/09 10:21:43;;;;;;;8.23;4.43;;;25.80;99.90;;;;;;5001518;28;20120;-77
2023/08/09 10:24:13;;;;;;;8.98;4.07;;;26.10;99.90;;;;;;5000808;28;20176;-77
2023/08/09 10:26:44;;;;;;;4.75;2.38;;;26.00;99.90;;;;;;5002284;28;20073;-78
2023/08/09 10:29:12;;;;;;;3.88;2.42;;;25.80;99.90;;;;;;5001751;28;20086;-77
2023/08/09 10:31:51;;;;;;;1.90;1.17;;;25.90;99.90;;;;;;5002301;28;20668;-79
2023/08/09 10:34:20;;;;;;;3.45;1.70;;;26.00;99.90;;;;;;5001325;28;20050;-78
2023/08/09 10:36:53;;;;;;;3.90;2.85;;;26.10;99.90;;;;;;5005998;28;20118;-77
2023/08/09 10:39:21;;;;;;;2.22;1.45;;;26.40;99.90;;;;;;5000706;28;20108;-77
2023/08/09 10:42:06;;;;;;;3.03;1.80;;;26.40;99.90;;;;;;5000734;28;20041;-76
2023/08/09 10:44:40;;;;;;;7.20;5.00;;;25.90;99.90;;;;;;4998139;28;20109;-78
2023/08/09 10:47:12;;;;;;;2.97;1.95;;;26.00;99.90;;;;;;5001435;28;20034;-78
2023/08/09 10:50:14;;;;;;;3.20;1.73;;;26.00;99.90;;;;;;5004005;28;20053;-79
2023/08/09 10:52:49;;;;;;;4.45;2.15;;;25.70;99.90;;;;;;5003034;28;20104;-77
2023/08/09 10:55:35;;;;;;;4.78;1.88;;;25.80;99.90;;;;;;5004497;28;20144;-80
2023/08/09 10:58:02;;;;;;;;;;;25.50;99.90;;;;;;5005295;28;20046;-77
2023/08/09 11:00:39;;;;;;;4.20;2.00;;;25.40;99.90;;;;;;5013282;28;19944;-78
2023/08/09 11:03:08;;;;;;;2.92;1.90;;;25.70;99.90;;;;;;5011789;28;20053;-77
2023/08/09 11:05:37;;;;;;;3.58;2.60;;;25.80;99.90;;;;;;5011344;28;20677;-77
2023/08/09 11:08:11;;;;;;;5.10;3.80;;;26.00;99.90;;;;;;5036974;28;20050;-77
2023/08/09 11:10:41;;;;;;;19.33;17.42;;;26.10;99.90;;;;;;5043957;28;20062;-77
2023/08/09 11:13:10;;;;;;;5.70;3.40;;;26.20;99.90;;;;;;5022483;28;20049;-77
2023/08/09 11:15:38;;;;;;;4.93;3.35;;;26.50;99.90;;;;;;5003430;28;20175;-79
2023/08/09 11:18:07;;;;;;;5.13;3.03;;;26.40;99.90;;;;;;5019673;28;20038;-78
2023/08/09 11:20:35;;;;;;;6.90;3.50;;;26.40;99.90;;;;;;5026340;28;20107;-78
2023/08/09 11:23:03;;;;;;;4.90;3.80;;;26.50;99.90;;;;;;5019418;28;20051;-79
2023/08/09 11:25:33;;;;;;;5.82;3.75;;;26.80;99.90;;;;;;5020983;28;20137;-79
2023/08/09 11:28:03;;;;;;;4.72;2.25;;;26.90;99.90;;;;;;5021539;28;20042;-78
2023/08/09 11:30:38;;;;;;;3.00;1.55;;;26.90;99.90;;;;;;5020392;28;20050;-78
2023/08/09 11:33:10;;;;;;;4.25;1.77;;;26.80;99.90;;;;;;5020789;28;20707;-78
2023/08/09 11:35:43;;;;;;;4.45;1.80;;;26.70;99.90;;;;;;5021810;28;20509;-77
2023/08/09 11:38:13;;;;;;;5.03;2.58;;;26.80;99.90;;;;;;5019475;28;20130;-78
2023/08/09 11:40:43;;;;;;;5.63;2.67;;;26.90;99.90;;;;;;5020106;28;20041;-80
2023/08/09 11:43:15;;;;;;;4.78;2.63;;;26.80;99.90;;;;;;5004639;28;20115;-78
2023/08/09 11:45:52;;;;;;;5.82;2.80;;;26.70;99.90;;;;;;5020696;28;20108;-78
2023/08/09 11:48:30;;;;;;;2.78;1.65;;;26.50;99.90;;;;;;5020707;28;20080;-78
2023/08/09 11:51:06;;;;;;;3.53;2.20;;;25.70;99.90;;;;;;5021295;28;20046;-78
2023/08/09 11:53:34;;;;;;;4.35;2.08;;;25.40;99.90;;;;;;5003265;28;20575;-79
2023/08/09 11:56:01;;;;;;;2.53;1.52;;;24.90;99.90;;;;;;5002388;28;20038;-79
2023/08/09 11:58:29;;;;;;;3.83;2.13;;;24.80;99.90;;;;;;5020430;28;20049;-78
2023/08/09 12:00:58;;;;;;;4.75;2.35;;;24.80;99.90;;;;;;5019768;28;20172;-78
2023/08/09 12:03:27;;;;;;;6.30;3.70;;;25.10;99.90;;;;;;5017902;28;20100;-78
2023/08/09 12:05:54;;;;;;;5.38;2.00;;;25.10;99.90;;;;;;5020446;28;20045;-77
2023/08/09 12:08:35;;;;;;;4.10;1.58;;;25.20;99.90;;;;;;5020858;28;20046;-76
2023/08/09 12:11:04;;;;;;;5.20;1.63;;;25.00;99.90;;;;;;5019053;28;20041;-77
2023/08/09 12:13:32;;;;;;;2.97;1.38;;;24.90;99.90;;;;;;5020338;28;20544;-79
2023/08/09 12:16:06;;;;;;;5.80;2.78;;;24.70;99.90;;;;;;5019988;28;20042;-78
2023/08/09 12:18:37;;;;;;;3.88;2.53;;;24.90;99.90;;;;;;5018827;28;20068;-77
2023/08/09 12:21:07;;;;;;;4.68;1.63;;;25.10;99.90;;;;;;5018764;28;20042;-78
2023/08/09 12:23:36;;;;;;;3.53;2.03;;;25.00;99.90;;;;;;5020295;28;20060;-79
2023/08/09 12:26:04;;;;;;;5.05;2.30;;;24.80;99.90;;;;;;5018841;28;20071;-77
2023/08/09 12:28:31;;;;;;;5.78;2.28;;;24.90;99.90;;;;;;5019604;28;20077;-79
2023/08/09 12:31:00;;;;;;;4.72;2.33;;;25.10;99.90;;;;;;5018514;28;20046;-78
2023/08/09 12:33:28;;;;;;;4.07;2.03;;;25.30;99.90;;;;;;5018931;28;20469;-79
2023/08/09 12:35:58;;;;;;;5.70;1.98;;;25.60;99.90;;;;;;5009516;28;20501;-82
2023/08/09 12:38:26;;;;;;;7.20;3.63;;;25.60;99.90;;;;;;5020018;28;20083;-78
2023/08/09 12:41:13;;;;;;;3.83;2.13;;;25.70;99.90;;;;;;5023197;28;20033;-88
2023/08/09 12:43:41;;;;;;;3.90;1.83;;;25.80;99.90;;;;;;5004865;28;20045;-85
2023/08/09 12:46:09;;;;;;;4.90;2.78;;;25.90;99.90;;;;;;5018613;28;20061;-78
2023/08/09 12:48:36;;;;;;;4.63;2.38;;;26.00;99.90;;;;;;5025846;28;20114;-79
2023/08/09 12:51:05;;;;;;;4.70;3.53;;;26.20;99.90;;;;;;5022708;28;20036;-80
2023/08/09 12:53:32;;;;;;;4.25;1.77;;;26.20;99.90;;;;;;5004078;28;20123;-77